Time;durP1;ratioP1;P1;durP2;ratioP2;P2;SDS_P1;SDS_P2;PMS_P1;PMS_P2;Temp;Humidity;BMP_temperature;BMP_pressure;BME280_temperature;BME280_humidity;BME280_pressure;Samples;Min_cycle;Max_cycle;Signal;HPM_P1;HPM_P2
2024/03/14 00:01:26;;;;;;;8.07;4.35;;;9.60;99.90;;;;;;5053609;28;20028;-54
2024/03/14 00:03:54;;;;;;;7.25;4.30;;;9.60;99.90;;;;;;5049893;28;20025;-53
2024/03/14 00:06:22;;;;;;;9.52;5.32;;;9.50;99.90;;;;;;5053710;28;20025;-51
2024/03/14 00:08:48;;;;;;;7.50;4.85;;;9.50;99.90;;;;;;5050130;28;20025;-50
2024/03/14 00:11:14;;;;;;;8.68;4.40;;;9.50;99.90;;;;;;5051306;28;20577;-53
2024/03/14 00:13:39;;;;;;;7.55;4.38;;;9.50;99.90;;;;;;5053401;28;20037;-55
2024/03/14 00:16:05;;;;;;;5.82;4.35;;;9.50;99.90;;;;;;5050142;28;20052;-48
2024/03/14 00:18:31;;;;;;;8.45;3.53;;;9.50;99.90;;;;;;5052918;28;20043;-49
2024/03/14 00:20:57;;;;;;;11.52;4.00;;;9.50;99.90;;;;;;5052563;28;20081;-50
2024/03/14 00:23:23;;;;;;;6.38;3.85;;;9.50;99.90;;;;;;5048296;28;20029;-51
2024/03/14 00:25:51;;;;;;;6.47;4.13;;;9.50;99.90;;;;;;5051075;28;20474;-52
2024/03/14 00:28:18;;;;;;;5.53;3.65;;;9.50;99.90;;;;;;5047071;28;20025;-53
2024/03/14 00:30:44;;;;;;;6.97;4.05;;;9.50;99.90;;;;;;5050511;28;20067;-55
2024/03/14 00:33:10;;;;;;;8.88;4.57;;;9.50;99.90;;;;;;5050764;28;20028;-52
2024/03/14 00:35:36;;;;;;;5.45;3.83;;;9.50;99.90;;;;;;5050187;28;20044;-50
2024/03/14 00:38:02;;;;;;;5.97;4.35;;;9.50;99.90;;;;;;5051939;28;20458;-48
2024/03/14 00:40:31;;;;;;;6.13;3.70;;;9.50;99.90;;;;;;5051296;28;20504;-48
2024/03/14 00:42:57;;;;;;;5.53;3.22;;;9.40;99.90;;;;;;5050912;28;20041;-52
2024/03/14 00:45:22;;;;;;;12.15;4.88;;;9.40;99.90;;;;;;5051272;28;20048;-52
2024/03/14 00:47:48;;;;;;;6.65;4.25;;;9.40;99.90;;;;;;5050975;28;20017;-50
2024/03/14 00:50:14;;;;;;;8.50;4.18;;;9.40;99.90;;;;;;5049346;28;20108;-52
2024/03/14 00:52:40;;;;;;;10.65;4.25;;;9.50;99.90;;;;;;5052191;28;20062;-50
2024/03/14 00:55:09;;;;;;;7.93;3.95;;;9.50;99.90;;;;;;5051094;28;20025;-51
2024/03/14 00:57:35;;;;;;;6.68;3.85;;;9.50;99.90;;;;;;5049600;28;20071;-49
2024/03/14 01:00:01;;;;;;;7.03;4.22;;;9.60;99.90;;;;;;5050701;28;20021;-50
2024/03/14 01:02:27;;;;;;;7.13;4.03;;;9.60;99.90;;;;;;5049527;28;20062;-49
2024/03/14 01:04:55;;;;;;;8.15;4.40;;;9.60;99.90;;;;;;5048807;28;20025;-51
2024/03/14 01:07:23;;;;;;;9.07;5.28;;;9.70;99.90;;;;;;5051291;28;20036;-52
2024/03/14 01:09:48;;;;;;;7.18;3.83;;;9.70;99.90;;;;;;5049362;28;20044;-52
2024/03/14 01:12:14;;;;;;;8.82;4.15;;;9.70;99.90;;;;;;5047952;28;20083;-49
2024/03/14 01:14:40;;;;;;;9.68;4.30;;;9.70;99.90;;;;;;5051315;28;20021;-48
2024/03/14 01:17:06;;;;;;;7.28;3.85;;;9.70;99.90;;;;;;5050244;28;20079;-54
2024/03/14 01:19:32;;;;;;;8.23;4.50;;;9.80;99.90;;;;;;5051655;28;20044;-50
2024/03/14 01:21:57;;;;;;;5.30;3.30;;;9.80;99.90;;;;;;5051811;28;20021;-48
2024/03/14 01:24:23;;;;;;;11.07;4.30;;;9.80;99.90;;;;;;5050313;28;20021;-52
2024/03/14 01:26:49;;;;;;;6.75;4.25;;;9.80;99.90;;;;;;5049829;28;20025;-54
2024/03/14 01:29:16;;;;;;;9.43;4.60;;;9.80;99.90;;;;;;5049256;28;20515;-54
2024/03/14 01:31:42;;;;;;;7.75;4.30;;;9.80;99.90;;;;;;5048765;28;20524;-54
2024/03/14 01:34:08;;;;;;;10.18;5.07;;;9.80;99.90;;;;;;5052376;28;20060;-50
2024/03/14 01:36:39;;;;;;;8.13;4.60;;;9.80;99.90;;;;;;5051443;28;20060;-54
2024/03/14 01:39:05;;;;;;;10.77;5.10;;;9.80;99.90;;;;;;5048646;28;20037;-51
2024/03/14 01:41:31;;;;;;;8.13;4.70;;;9.80;99.90;;;;;;5046065;28;20104;-51
2024/03/14 01:43:57;;;;;;;9.75;4.63;;;9.80;99.90;;;;;;5050491;28;20116;-52
2024/03/14 01:46:30;;;;;;;8.68;5.00;;;9.80;99.90;;;;;;5053543;28;20572;-48
2024/03/14 01:48:58;;;;;;;12.02;4.95;;;9.80;99.90;;;;;;5049760;28;20088;-50
2024/03/14 01:51:24;;;;;;;10.43;4.63;;;9.70;99.90;;;;;;5049497;28;20035;-48
2024/03/14 01:53:50;;;;;;;7.97;4.70;;;9.70;99.90;;;;;;5048918;28;20036;-51
2024/03/14 01:56:17;;;;;;;10.45;4.63;;;9.60;99.90;;;;;;5046927;28;20037;-49
2024/03/14 01:58:43;;;;;;;8.18;4.60;;;9.60;99.90;;;;;;5047885;28;20141;-53
2024/03/14 02:01:10;;;;;;;7.80;5.00;;;9.60;99.90;;;;;;5048716;28;20029;-49
2024/03/14 02:03:36;;;;;;;7.88;4.38;;;9.50;99.90;;;;;;5050337;28;20029;-49
2024/03/14 02:06:27;;;;;;;8.75;4.97;;;9.50;99.90;;;;;;5049951;28;20107;-52
2024/03/14 02:08:52;;;;;;;18.83;4.85;;;9.50;99.90;;;;;;5036037;28;20119;-53
2024/03/14 02:11:18;;;;;;;10.45;4.97;;;9.40;99.90;;;;;;5045124;28;20037;-52
2024/03/14 02:13:45;;;;;;;7.63;4.72;;;9.40;99.90;;;;;;5050034;28;20024;-53
2024/03/14 02:16:10;;;;;;;14.75;5.88;;;9.40;99.90;;;;;;5050272;28;20059;-51
2024/03/14 02:18:36;;;;;;;11.60;5.70;;;9.40;99.90;;;;;;5051076;28;20033;-51
2024/03/14 02:21:01;;;;;;;8.70;5.13;;;9.40;99.90;;;;;;5049652;28;20081;-53
2024/03/14 02:23:27;;;;;;;8.50;4.70;;;9.40;99.90;;;;;;5043296;28;20037;-51
2024/03/14 02:25:54;;;;;;;13.20;5.40;;;9.40;99.90;;;;;;5045631;28;20032;-49
2024/03/14 02:28:20;;;;;;;10.40;5.55;;;9.40;99.90;;;;;;5048959;28;20471;-53
2024/03/14 02:30:45;;;;;;;12.90;5.63;;;9.40;99.90;;;;;;5047694;28;20027;-54
2024/03/14 02:33:11;;;;;;;15.70;6.07;;;9.40;99.90;;;;;;5049525;28;20747;-49
2024/03/14 02:35:39;;;;;;;7.57;4.38;;;9.30;99.90;;;;;;5048398;28;20095;-53
2024/03/14 02:38:05;;;;;;;14.07;4.82;;;9.30;99.90;;;;;;5047778;28;20104;-49
2024/03/14 02:40:30;;;;;;;12.00;5.47;;;9.30;99.90;;;;;;5048117;28;20067;-53
2024/03/14 02:42:56;;;;;;;10.88;5.45;;;9.30;99.90;;;;;;5047958;28;20508;-53
2024/03/14 02:45:21;;;;;;;7.50;5.15;;;9.20;99.90;;;;;;5049627;28;20457;-48
2024/03/14 02:47:47;;;;;;;9.07;5.35;;;9.20;99.90;;;;;;5048143;28;20025;-51
2024/03/14 02:50:13;;;;;;;9.15;4.95;;;9.20;99.90;;;;;;5049860;28;20025;-49
2024/03/14 02:52:39;;;;;;;15.10;5.75;;;9.10;99.90;;;;;;5050072;28;20494;-51
2024/03/14 02:55:07;;;;;;;10.70;5.47;;;9.10;99.90;;;;;;5051827;28;20694;-49
2024/03/14 02:57:34;;;;;;;9.43;5.95;;;9.10;99.90;;;;;;5049518;28;20075;-51
2024/03/14 03:00:00;;;;;;;16.05;6.35;;;9.10;99.90;;;;;;5053628;28;20033;-51
2024/03/14 03:02:26;;;;;;;7.93;4.85;;;9.00;99.90;;;;;;5053367;28;20037;-54
2024/03/14 03:04:51;;;;;;;8.93;5.55;;;9.00;99.90;;;;;;5054185;28;20109;-49
2024/03/14 03:07:18;;;;;;;14.43;4.97;;;8.90;99.90;;;;;;5054067;28;20025;-48
2024/03/14 03:09:46;;;;;;;10.90;5.10;;;8.90;99.90;;;;;;5053620;28;20090;-53
2024/03/14 03:12:12;;;;;;;9.45;5.55;;;8.80;99.90;;;;;;5051382;28;20079;-49
2024/03/14 03:14:38;;;;;;;11.77;6.90;;;8.70;99.90;;;;;;5052257;28;20084;-52
2024/03/14 03:17:05;;;;;;;9.50;5.65;;;8.70;99.90;;;;;;5053405;28;20029;-48
2024/03/14 03:19:31;;;;;;;9.57;5.88;;;8.60;99.90;;;;;;5054863;28;20398;-49
2024/03/14 03:21:59;;;;;;;13.48;5.93;;;8.50;99.90;;;;;;5052286;28;20029;-50
2024/03/14 03:24:25;;;;;;;12.88;6.35;;;8.50;99.90;;;;;;5053776;28;20033;-50
2024/03/14 03:26:50;;;;;;;16.67;6.93;;;8.50;99.90;;;;;;5052981;28;20025;-51
2024/03/14 03:29:16;;;;;;;19.60;7.45;;;8.40;99.90;;;;;;5052390;28;20021;-50
2024/03/14 03:31:42;;;;;;;13.85;7.13;;;8.40;99.90;;;;;;5052226;28;20029;-48
2024/03/14 03:34:08;;;;;;;10.45;6.18;;;8.40;99.90;;;;;;5052964;28;20028;-51
2024/03/14 03:36:33;;;;;;;13.63;7.20;;;8.30;99.90;;;;;;5051494;28;20053;-50
2024/03/14 03:39:00;;;;;;;14.25;7.10;;;8.20;99.90;;;;;;5053925;28;20021;-53
2024/03/14 03:41:29;;;;;;;13.07;5.88;;;8.20;99.90;;;;;;5049900;28;20029;-50
2024/03/14 03:43:55;;;;;;;16.88;6.90;;;8.20;99.90;;;;;;5057788;28;20033;-50
2024/03/14 03:46:21;;;;;;;13.20;6.32;;;8.10;99.90;;;;;;5052792;28;20029;-49
2024/03/14 03:48:46;;;;;;;12.85;6.70;;;8.20;99.90;;;;;;5053743;28;20613;-53
2024/03/14 03:51:13;;;;;;;11.13;6.53;;;8.10;99.90;;;;;;5051265;28;20063;-50
2024/03/14 03:53:38;;;;;;;12.00;6.90;;;8.10;99.90;;;;;;5053180;28;20041;-49
2024/03/14 03:56:04;;;;;;;10.88;6.47;;;8.10;99.90;;;;;;5051801;28;20037;-49
2024/03/14 03:58:32;;;;;;;12.55;6.25;;;8.00;99.90;;;;;;5053139;28;20041;-52
2024/03/14 04:01:06;;;;;;;11.75;6.68;;;8.00;99.90;;;;;;5052662;28;20021;-52
2024/03/14 04:03:34;;;;;;;16.35;6.43;;;7.90;99.90;;;;;;5049003;28;20038;-55
2024/03/14 04:06:00;;;;;;;11.57;6.35;;;7.90;99.90;;;;;;5052580;28;20060;-49
2024/03/14 04:08:30;;;;;;;12.00;6.15;;;7.90;99.90;;;;;;5053337;28;20032;-48
2024/03/14 04:10:56;;;;;;;13.43;6.78;;;7.80;99.90;;;;;;5050430;28;20112;-53
2024/03/14 04:13:22;;;;;;;11.85;6.55;;;7.70;99.90;;;;;;5051482;28;20028;-49
2024/03/14 04:15:47;;;;;;;10.30;6.43;;;7.70;99.90;;;;;;5051291;28;20021;-48
2024/03/14 04:18:13;;;;;;;13.00;6.40;;;7.70;99.90;;;;;;5057060;28;20025;-49
2024/03/14 04:20:39;;;;;;;12.07;7.07;;;7.60;99.90;;;;;;5052483;28;20041;-53
2024/03/14 04:23:05;;;;;;;13.75;6.68;;;7.60;99.90;;;;;;5051345;28;20056;-50
2024/03/14 04:25:33;;;;;;;11.73;6.32;;;7.60;99.90;;;;;;5050446;28;20021;-48
2024/03/14 04:27:59;;;;;;;9.52;6.15;;;7.60;99.90;;;;;;5049821;28;20039;-51
2024/03/14 04:30:25;;;;;;;10.60;6.43;;;7.60;99.90;;;;;;5052298;28;20029;-48
2024/03/14 04:32:51;;;;;;;11.70;6.00;;;7.60;99.90;;;;;;5051367;28;20490;-55
2024/03/14 04:35:20;;;;;;;18.38;7.28;;;7.60;99.90;;;;;;5058100;28;20041;-51
2024/03/14 04:37:49;;;;;;;12.55;6.57;;;7.60;99.90;;;;;;5050687;28;20129;-53
2024/03/14 04:40:21;;;;;;;10.95;6.70;;;7.60;99.90;;;;;;5051816;28;20441;-49
2024/03/14 04:42:47;;;;;;;15.35;6.43;;;7.60;99.90;;;;;;5050526;28;20052;-48
2024/03/14 04:45:21;;;;;;;13.90;6.35;;;7.60;99.90;;;;;;5068566;22;20071;-55
2024/03/14 04:47:48;;;;;;;17.00;7.35;;;7.60;99.90;;;;;;5066427;28;20016;-57
2024/03/14 04:50:14;;;;;;;12.10;6.63;;;7.60;99.90;;;;;;5071075;28;20024;-53
2024/03/14 04:52:40;;;;;;;13.82;6.95;;;7.50;99.90;;;;;;5071751;28;20028;-54
2024/03/14 04:55:09;;;;;;;17.42;8.38;;;7.50;99.90;;;;;;5073236;28;20090;-56
2024/03/14 04:57:35;;;;;;;17.27;6.85;;;7.50;99.90;;;;;;5073665;28;20033;-55
2024/03/14 05:00:10;;;;;;;15.65;6.55;;;7.50;99.90;;;;;;5069941;28;20728;-55
2024/03/14 05:02:36;;;;;;;11.43;6.38;;;7.50;99.90;;;;;;5062868;28;20033;-51
2024/03/14 05:05:04;;;;;;;19.30;6.10;;;7.50;99.90;;;;;;5068045;28;20032;-57
2024/03/14 05:07:29;;;;;;;18.33;7.88;;;7.50;99.90;;;;;;5069914;28;20036;-55
2024/03/14 05:09:55;;;;;;;16.40;6.95;;;7.40;99.90;;;;;;5073106;28;20032;-54
2024/03/14 05:12:21;;;;;;;15.25;7.13;;;7.40;99.90;;;;;;5077561;28;20787;-56
2024/03/14 05:14:46;;;;;;;13.70;7.22;;;7.40;99.90;;;;;;5070389;28;20028;-52
2024/03/14 05:17:12;;;;;;;16.58;7.13;;;7.30;99.90;;;;;;5068736;28;20029;-55
2024/03/14 05:19:38;;;;;;;14.18;7.38;;;7.30;99.90;;;;;;5069681;28;20516;-53
2024/03/14 05:22:04;;;;;;;17.70;7.95;;;7.30;99.90;;;;;;5071804;28;20482;-56
2024/03/14 05:24:30;;;;;;;10.68;6.53;;;7.20;99.90;;;;;;5071722;28;20488;-55
2024/03/14 05:26:56;;;;;;;12.40;6.70;;;7.20;99.90;;;;;;5072283;28;20020;-53
2024/03/14 05:29:22;;;;;;;11.88;6.38;;;7.20;99.90;;;;;;5067634;28;20024;-52
2024/03/14 05:31:48;;;;;;;12.93;7.78;;;7.20;99.90;;;;;;5070879;28;20522;-54
2024/03/14 05:34:13;;;;;;;13.27;6.53;;;7.10;99.90;;;;;;5074277;28;20158;-52
2024/03/14 05:36:39;;;;;;;13.43;6.90;;;7.10;99.90;;;;;;5068588;28;20085;-52
2024/03/14 05:39:04;;;;;;;13.30;7.43;;;7.10;99.90;;;;;;5069756;28;20033;-57
2024/03/14 05:41:30;;;;;;;16.05;7.15;;;7.10;99.90;;;;;;5064938;28;20512;-55
2024/03/14 05:43:55;;;;;;;15.70;7.45;;;7.00;99.90;;;;;;5068866;28;20635;-55
2024/03/14 05:46:21;;;;;;;18.25;7.97;;;7.10;99.90;;;;;;5069113;28;20059;-54
2024/03/14 05:48:46;;;;;;;16.52;7.90;;;7.10;99.90;;;;;;5070661;28;20108;-56
2024/03/14 05:51:12;;;;;;;16.38;7.55;;;7.00;99.90;;;;;;5071578;28;20082;-56
2024/03/14 05:53:38;;;;;;;19.42;7.97;;;7.00;99.90;;;;;;5070867;28;20078;-57
2024/03/14 05:56:03;;;;;;;16.92;7.43;;;7.00;99.90;;;;;;5063938;28;20036;-57
2024/03/14 05:58:30;;;;;;;14.63;7.40;;;7.00;99.90;;;;;;5069708;28;20031;-55
2024/03/14 06:00:56;;;;;;;17.08;8.20;;;7.00;99.90;;;;;;5067571;28;20037;-57
2024/03/14 06:03:22;;;;;;;21.23;8.25;;;7.00;99.90;;;;;;5068251;28;20410;-54
2024/03/14 06:05:50;;;;;;;20.38;8.75;;;7.00;99.90;;;;;;5069813;28;20028;-53
2024/03/14 06:08:15;;;;;;;19.73;8.65;;;7.10;99.90;;;;;;5067978;28;20486;-56
2024/03/14 06:10:41;;;;;;;21.60;8.82;;;7.20;99.90;;;;;;5068262;28;20029;-56
2024/03/14 06:13:08;;;;;;;16.10;7.57;;;7.20;99.90;;;;;;5069543;28;20559;-57
2024/03/14 06:15:35;;;;;;;14.40;8.27;;;7.30;99.90;;;;;;5069720;28;20394;-58
2024/03/14 06:18:02;;;;;;;15.93;7.95;;;7.30;99.90;;;;;;5061318;28;20090;-55
2024/03/14 06:20:27;;;;;;;17.85;7.75;;;7.30;99.90;;;;;;5069947;28;20389;-57
2024/03/14 06:22:53;;;;;;;15.07;8.05;;;7.40;99.90;;;;;;5068390;28;20032;-54
2024/03/14 06:25:19;;;;;;;16.52;7.72;;;7.50;99.90;;;;;;5063728;28;20037;-52
2024/03/14 06:27:44;;;;;;;16.48;8.55;;;7.50;99.90;;;;;;5068927;28;20028;-55
2024/03/14 06:30:11;;;;;;;12.65;6.85;;;7.60;99.90;;;;;;5064419;28;20651;-58
2024/03/14 06:32:36;;;;;;;14.80;7.97;;;7.70;99.90;;;;;;5068205;28;20028;-51
2024/03/14 06:35:08;;;;;;;20.23;8.68;;;7.80;99.90;;;;;;5066462;28;20029;-54
2024/03/14 06:37:35;;;;;;;16.50;8.27;;;7.90;99.90;;;;;;5068981;28;20029;-57
2024/03/14 06:40:01;;;;;;;15.38;8.05;;;8.00;99.90;;;;;;5063018;28;20374;-56
2024/03/14 06:42:27;;;;;;;12.70;6.93;;;8.00;99.90;;;;;;5068983;28;20082;-53
2024/03/14 06:44:53;;;;;;;13.48;7.60;;;8.10;99.90;;;;;;5069251;28;20036;-54
2024/03/14 06:47:20;;;;;;;12.73;6.78;;;8.20;99.90;;;;;;5069174;28;20032;-54
2024/03/14 06:49:46;;;;;;;12.98;7.15;;;8.30;99.90;;;;;;5070345;28;20048;-57
2024/03/14 06:52:12;;;;;;;11.40;7.10;;;8.40;99.90;;;;;;5071356;28;20035;-56
2024/03/14 06:54:38;;;;;;;10.18;6.88;;;8.40;99.90;;;;;;5068830;28;20031;-55
2024/03/14 06:57:09;;;;;;;16.48;7.78;;;8.40;99.90;;;;;;5062924;28;20032;-54
2024/03/14 06:59:35;;;;;;;14.82;7.15;;;8.40;99.90;;;;;;5069687;28;20032;-55
2024/03/14 07:02:01;;;;;;;12.85;5.88;;;8.40;99.90;;;;;;5068718;28;20052;-55
2024/03/14 07:04:33;;;;;;;12.18;6.15;;;8.40;99.90;;;;;;5067413;28;20056;-52
2024/03/14 07:06:59;;;;;;;12.25;6.55;;;8.40;99.90;;;;;;5067530;28;20029;-53
2024/03/14 07:09:27;;;;;;;18.25;6.88;;;8.30;99.90;;;;;;5069702;28;20033;-55
2024/03/14 07:11:53;;;;;;;17.13;6.82;;;8.30;99.90;;;;;;5067685;28;20438;-55
2024/03/14 07:14:19;;;;;;;21.15;7.32;;;8.40;99.90;;;;;;5066587;28;20059;-56
2024/03/14 07:16:45;;;;;;;14.63;6.32;;;8.40;99.90;;;;;;5062136;28;20029;-55
2024/03/14 07:19:11;;;;;;;16.80;7.53;;;8.50;99.90;;;;;;5070135;28;20067;-54
2024/03/14 07:21:38;;;;;;;11.98;7.05;;;8.60;99.90;;;;;;5066758;28;20024;-54
2024/03/14 07:24:05;;;;;;;11.05;6.88;;;8.70;99.90;;;;;;5069549;28;20408;-52
2024/03/14 07:26:35;;;;;;;14.02;6.53;;;8.80;99.90;;;;;;5068170;28;20021;-52
2024/03/14 07:29:03;;;;;;;10.75;6.05;;;9.00;99.90;;;;;;5069152;28;20157;-54
2024/03/14 07:31:29;;;;;;;14.85;6.70;;;9.30;99.90;;;;;;5066034;28;20505;-54
2024/03/14 07:33:56;;;;;;;12.05;6.38;;;9.50;99.90;;;;;;5064792;28;21182;-54
2024/03/14 07:36:24;;;;;;;8.00;5.82;;;9.70;99.90;;;;;;5076249;28;20029;-56
2024/03/14 07:38:50;;;;;;;9.05;5.80;;;10.00;99.90;;;;;;5068196;28;20029;-55
2024/03/14 07:41:22;;;;;;;10.07;6.15;;;10.20;99.90;;;;;;5072695;28;20394;-56
2024/03/14 07:43:48;;;;;;;8.23;4.88;;;10.40;99.90;;;;;;5073122;28;20024;-56
2024/03/14 07:46:14;;;;;;;8.18;5.60;;;10.50;99.90;;;;;;5068828;28;20052;-55
2024/03/14 07:48:43;;;;;;;9.02;5.38;;;10.80;99.90;;;;;;5068459;28;20039;-56
2024/03/14 07:51:09;;;;;;;10.93;6.15;;;11.10;99.90;;;;;;5071369;28;20078;-56
2024/03/14 07:53:34;;;;;;;13.27;5.22;;;11.30;99.90;;;;;;5068700;28;20024;-55
2024/03/14 07:56:00;;;;;;;7.60;4.45;;;11.40;99.90;;;;;;5066274;28;20024;-55
2024/03/14 07:58:26;;;;;;;8.95;4.90;;;11.70;99.90;;;;;;5067051;28;20462;-53
2024/03/14 08:00:53;;;;;;;9.10;5.13;;;11.80;99.90;;;;;;5071626;28;20052;-53
2024/03/14 08:03:19;;;;;;;7.45;4.82;;;11.90;99.90;;;;;;5070793;28;20457;-54
2024/03/14 08:05:50;;;;;;;9.40;5.07;;;12.00;99.90;;;;;;5070974;28;20024;-56
2024/03/14 08:08:17;;;;;;;7.28;4.97;;;12.00;99.90;;;;;;5073640;28;20028;-54
2024/03/14 08:10:46;;;;;;;8.70;5.90;;;11.90;99.90;;;;;;5073336;28;20056;-55
2024/03/14 08:13:20;;;;;;;10.75;5.63;;;12.00;99.90;;;;;;5067500;28;20068;-54
2024/03/14 08:15:59;;;;;;;8.43;5.95;;;11.80;99.90;;;;;;5063053;28;20044;-55
2024/03/14 08:18:24;;;;;;;6.53;4.55;;;11.70;99.90;;;;;;5063255;28;20040;-56
2024/03/14 08:20:52;;;;;;;7.47;4.75;;;12.00;99.90;;;;;;5072071;28;20021;-55
2024/03/14 08:23:20;;;;;;;7.80;4.72;;;12.10;99.90;;;;;;5063120;28;20088;-56
2024/03/14 08:25:47;;;;;;;9.20;5.53;;;12.30;99.90;;;;;;5071038;28;20379;-56
2024/03/14 08:28:13;;;;;;;6.80;4.82;;;12.40;99.90;;;;;;5072370;28;20086;-55
2024/03/14 08:30:39;;;;;;;7.30;4.57;;;12.80;99.90;;;;;;5069724;28;20028;-53
2024/03/14 08:33:07;;;;;;;5.82;4.35;;;13.00;99.90;;;;;;5074857;28;20103;-56
2024/03/14 08:35:36;;;;;;;7.65;4.50;;;13.20;99.90;;;;;;5069889;28;20594;-56
2024/03/14 08:38:04;;;;;;;6.28;4.50;;;13.10;99.90;;;;;;5072215;28;20037;-56
2024/03/14 08:40:30;;;;;;;11.10;4.28;;;13.10;99.90;;;;;;5070508;28;20040;-53
2024/03/14 08:42:56;;;;;;;7.70;4.85;;;13.40;99.90;;;;;;5082352;28;20051;-54
2024/03/14 08:45:23;;;;;;;6.35;3.97;;;13.70;99.90;;;;;;5072806;28;20149;-54
2024/03/14 08:47:49;;;;;;;5.28;3.67;;;13.60;99.90;;;;;;5072425;28;20056;-56
2024/03/14 08:50:20;;;;;;;6.63;4.32;;;13.80;99.90;;;;;;5070750;28;20029;-56
2024/03/14 08:52:46;;;;;;;5.22;3.75;;;13.90;99.90;;;;;;5069439;28;20066;-56
2024/03/14 08:55:29;;;;;;;4.50;3.72;;;14.20;99.90;;;;;;5071672;28;20419;-53
2024/03/14 08:57:55;;;;;;;5.90;3.50;;;14.30;99.90;;;;;;5072805;28;20490;-55
2024/03/14 09:00:21;;;;;;;4.28;3.10;;;14.30;99.90;;;;;;5069944;28;20060;-56
2024/03/14 09:02:49;;;;;;;5.88;2.60;;;14.60;99.90;;;;;;5069629;28;20071;-56
2024/03/14 09:05:15;;;;;;;4.80;2.92;;;14.60;99.90;;;;;;5069135;28;20022;-55
2024/03/14 09:07:41;;;;;;;3.53;2.40;;;14.50;99.90;;;;;;5068666;28;20405;-56
2024/03/14 09:10:16;;;;;;;8.05;2.60;;;14.60;99.90;;;;;;5063817;28;20029;-55
2024/03/14 09:12:45;;;;;;;4.70;2.60;;;14.60;99.90;;;;;;5067339;28;20050;-56
2024/03/14 09:15:12;;;;;;;3.22;2.58;;;14.20;99.90;;;;;;5067897;28;20493;-55
2024/03/14 09:17:38;;;;;;;3.63;2.70;;;14.30;99.90;;;;;;5068147;28;20536;-56
2024/03/14 09:20:08;;;;;;;4.40;2.95;;;14.50;99.90;;;;;;5058752;28;20085;-57
2024/03/14 09:22:35;;;;;;;4.63;2.35;;;14.60;99.90;;;;;;5067605;28;20093;-57
2024/03/14 09:25:01;;;;;;;6.30;3.00;;;15.00;99.90;;;;;;5069905;28;20482;-56
2024/03/14 09:27:27;;;;;;;2.85;2.10;;;15.30;99.90;;;;;;5063260;28;20029;-54
2024/03/14 09:29:54;;;;;;;3.97;1.90;;;15.70;99.90;;;;;;5070858;28;20081;-54
2024/03/14 09:32:23;;;;;;;3.45;1.90;;;16.20;99.90;;;;;;5063905;28;20869;-57
2024/03/14 09:34:49;;;;;;;4.68;1.63;;;16.40;99.90;;;;;;5071140;28;20044;-56
2024/03/14 09:37:16;;;;;;;6.20;1.85;;;16.70;99.90;;;;;;5062925;28;20029;-56
2024/03/14 09:39:42;;;;;;;2.92;1.42;;;17.30;99.90;;;;;;5059832;28;20029;-54
2024/03/14 09:42:08;;;;;;;5.35;1.65;;;16.80;99.90;;;;;;5069450;28;20037;-57
2024/03/14 09:44:35;;;;;;;2.83;1.13;;;16.80;99.90;;;;;;5072276;28;20025;-58
2024/03/14 09:47:29;;;;;;;2.40;1.55;;;16.80;99.90;;;;;;5077182;28;20032;-57
2024/03/14 09:49:54;;;;;;;;;;;16.20;99.90;;;;;;5062270;28;20024;-56
2024/03/14 09:52:20;;;;;;;4.45;1.98;;;16.10;99.90;;;;;;5063700;28;20405;-56
2024/03/14 09:54:51;;;;;;;7.32;2.70;;;16.10;99.90;;;;;;5073443;28;20036;-56
2024/03/14 09:57:16;;;;;;;3.00;2.00;;;15.80;99.90;;;;;;5067406;28;20119;-56
2024/03/14 09:59:42;;;;;;;3.75;2.30;;;15.70;99.90;;;;;;5070163;28;20059;-57
2024/03/14 10:02:21;;;;;;;5.78;2.38;;;15.70;99.90;;;;;;5064959;28;20032;-54
2024/03/14 10:04:49;;;;;;;5.85;2.42;;;15.60;99.90;;;;;;5058291;28;20032;-56
2024/03/14 10:07:16;;;;;;;3.72;1.77;;;15.70;99.90;;;;;;5069189;28;20143;-57
2024/03/14 10:09:43;;;;;;;3.83;2.03;;;15.90;99.90;;;;;;5070460;28;20544;-57
2024/03/14 10:12:14;;;;;;;6.88;1.90;;;16.10;99.90;;;;;;5071168;28;20055;-54
2024/03/14 10:14:41;;;;;;;4.80;2.33;;;16.40;99.90;;;;;;5063695;28;20052;-55
2024/03/14 10:17:13;;;;;;;5.03;2.60;;;16.60;99.90;;;;;;5063705;28;20100;-56
2024/03/14 10:19:38;;;;;;;8.95;2.30;;;17.00;99.90;;;;;;5061416;28;20039;-53
2024/03/14 10:22:05;;;;;;;5.95;2.33;;;17.40;99.90;;;;;;5064802;28;20132;-56
2024/03/14 10:24:32;;;;;;;6.53;2.88;;;17.40;99.90;;;;;;5068246;28;20017;-57
2024/03/14 10:26:58;;;;;;;5.38;2.55;;;17.10;99.90;;;;;;5068847;28;20103;-55
2024/03/14 10:29:29;;;;;;;3.20;1.80;;;17.00;99.90;;;;;;5069303;28;20056;-57
2024/03/14 10:31:56;;;;;;;3.92;2.97;;;16.90;99.90;;;;;;5066743;28;20020;-55
2024/03/14 10:34:23;;;;;;;6.80;2.58;;;16.70;99.90;;;;;;5073053;28;20032;-56
2024/03/14 10:36:54;;;;;;;4.22;3.10;;;16.50;99.90;;;;;;5070387;28;20037;-57
2024/03/14 10:39:23;;;;;;;5.65;3.20;;;16.30;99.90;;;;;;5070394;28;20110;-57
2024/03/14 10:41:49;;;;;;;3.90;2.70;;;16.00;99.90;;;;;;5060719;28;20091;-56
2024/03/14 10:44:18;;;;;;;7.82;3.67;;;16.10;99.90;;;;;;5067808;28;20056;-57
2024/03/14 10:46:53;;;;;;;6.95;3.65;;;16.20;99.90;;;;;;5065159;28;20074;-56
2024/03/14 10:49:19;;;;;;;7.50;3.17;;;16.30;99.90;;;;;;5064174;28;20025;-57
2024/03/14 10:51:49;;;;;;;6.50;2.85;;;16.40;99.90;;;;;;5065248;28;20062;-56
2024/03/14 10:54:18;;;;;;;3.70;2.70;;;16.50;99.90;;;;;;5072406;28;20642;-56
2024/03/14 10:56:45;;;;;;;6.70;3.38;;;16.60;99.90;;;;;;5063166;28;20105;-55
2024/03/14 10:59:16;;;;;;;4.90;2.45;;;16.90;99.90;;;;;;5058759;22;20052;-52
2024/03/14 11:01:50;;;;;;;3.55;2.50;;;17.20;99.90;;;;;;5047715;28;20033;-53
2024/03/14 11:04:16;;;;;;;5.43;2.67;;;17.50;99.90;;;;;;5042414;28;20545;-53
2024/03/14 11:06:43;;;;;;;4.80;2.95;;;17.60;99.90;;;;;;5051466;28;20029;-48
2024/03/14 11:09:10;;;;;;;4.95;2.63;;;17.90;99.90;;;;;;5047156;28;20483;-48
2024/03/14 11:11:39;;;;;;;6.45;3.10;;;18.10;99.90;;;;;;5043685;28;20143;-51
2024/03/14 11:14:11;;;;;;;4.28;3.03;;;18.10;99.90;;;;;;5044442;28;20513;-51
2024/03/14 11:16:42;;;;;;;4.93;3.17;;;17.80;99.90;;;;;;5050697;28;20107;-53
2024/03/14 11:19:14;;;;;;;9.90;3.50;;;17.60;99.90;;;;;;5048771;28;20060;-54
2024/03/14 11:21:42;;;;;;;6.65;3.45;;;17.20;99.90;;;;;;5047168;28;20029;-50
2024/03/14 11:24:12;;;;;;;5.40;3.47;;;17.10;99.90;;;;;;5049827;28;20092;-51
2024/03/14 11:26:42;;;;;;;4.53;3.20;;;17.00;99.90;;;;;;5051252;28;20511;-50
2024/03/14 11:29:11;;;;;;;4.53;3.65;;;16.90;99.90;;;;;;5045763;28;20064;-52
2024/03/14 11:31:44;;;;;;;8.45;3.92;;;16.90;99.90;;;;;;5046429;28;20025;-49
2024/03/14 11:34:17;;;;;;;7.72;3.70;;;17.10;99.90;;;;;;5038078;28;20847;-49
2024/03/14 11:36:50;;;;;;;7.90;3.13;;;17.20;99.90;;;;;;5037629;28;20168;-50
2024/03/14 11:39:26;;;;;;;9.23;4.22;;;17.40;99.90;;;;;;5035023;28;20036;-49
2024/03/14 11:42:10;;;;;;;7.03;3.63;;;17.20;99.90;;;;;;5044136;28;20036;-51
2024/03/14 11:44:37;;;;;;;6.10;4.10;;;16.90;99.90;;;;;;5043175;28;20021;-49
2024/03/14 11:47:03;;;;;;;5.40;3.70;;;16.80;99.90;;;;;;5043745;28;20487;-50
2024/03/14 11:49:33;;;;;;;7.65;4.68;;;16.70;99.90;;;;;;5040447;28;20025;-55
2024/03/14 11:51:59;;;;;;;11.43;4.45;;;16.60;99.90;;;;;;5042972;28;20174;-52
2024/03/14 11:54:24;;;;;;;7.75;3.53;;;16.70;99.90;;;;;;5041615;28;20937;-47
2024/03/14 11:56:53;;;;;;;5.28;3.70;;;16.60;99.90;;;;;;5043050;28;20127;-52
2024/03/14 11:59:22;;;;;;;5.78;4.10;;;16.60;99.90;;;;;;5027547;28;20080;-52
2024/03/14 12:01:51;;;;;;;6.13;3.72;;;16.50;99.90;;;;;;5042245;28;20021;-50
2024/03/14 12:04:17;;;;;;;10.52;3.53;;;16.40;99.90;;;;;;5043368;28;20017;-52
2024/03/14 12:06:47;;;;;;;5.32;3.58;;;16.30;99.90;;;;;;5045281;28;20395;-48
2024/03/14 12:09:21;;;;;;;4.45;3.05;;;16.20;99.90;;;;;;5046842;28;20021;-49
2024/03/14 12:11:48;;;;;;;6.07;3.63;;;16.10;99.90;;;;;;5049848;28;20040;-52
2024/03/14 12:14:15;;;;;;;8.00;3.75;;;15.90;99.90;;;;;;5046341;28;21833;-49
2024/03/14 12:16:48;;;;;;;8.10;3.42;;;15.90;99.90;;;;;;5047585;28;20028;-52
2024/03/14 12:19:16;;;;;;;7.28;3.53;;;15.90;99.90;;;;;;5048750;28;20111;-48
2024/03/14 12:22:02;;;;;;;4.90;3.70;;;15.80;99.90;;;;;;5047994;28;20079;-49
2024/03/14 12:24:27;;;;;;;7.93;3.28;;;15.70;99.90;;;;;;5042527;28;20120;-48
2024/03/14 12:26:57;;;;;;;5.78;2.90;;;15.60;99.90;;;;;;5045632;28;20542;-48
2024/03/14 12:29:24;;;;;;;4.72;3.35;;;15.60;99.90;;;;;;5047007;28;20045;-48
2024/03/14 12:31:50;;;;;;;5.28;3.08;;;15.60;99.90;;;;;;5048174;28;20033;-52
2024/03/14 12:34:19;;;;;;;4.63;2.90;;;15.60;99.90;;;;;;5048476;28;20032;-51
2024/03/14 12:36:46;;;;;;;5.47;3.05;;;15.60;99.90;;;;;;5045675;28;20040;-50
2024/03/14 12:39:12;;;;;;;3.95;2.75;;;15.60;99.90;;;;;;5045020;28;20033;-48
2024/03/14 12:41:38;;;;;;;4.28;2.65;;;15.50;99.90;;;;;;5048211;28;20454;-52
2024/03/14 12:44:08;;;;;;;4.65;2.45;;;15.60;99.90;;;;;;5047236;28;21788;-52
2024/03/14 12:46:35;;;;;;;4.68;1.73;;;15.60;99.90;;;;;;5049016;28;20029;-53
2024/03/14 12:49:03;;;;;;;3.30;1.80;;;15.70;99.90;;;;;;5047541;28;20032;-51